createdAt,value
2022-07-27T00:01:21.519Z,18.71
2022-07-27T00:03:49.603Z,18.65
2022-07-27T00:06:17.603Z,18.61
2022-07-27T00:08:45.617Z,18.53
2022-07-27T00:11:15.040Z,18.22
2022-07-27T00:13:45.124Z,18.40
2022-07-27T00:16:13.169Z,18.36
2022-07-27T00:18:41.157Z,18.31
2022-07-27T00:21:09.135Z,18.26
2022-07-27T00:23:37.037Z,18.19
2022-07-27T00:26:04.954Z,18.12
2022-07-27T00:28:34.525Z,18.04
2022-07-27T00:31:02.453Z,17.99
2022-07-27T00:33:30.790Z,17.95
2022-07-27T00:35:59.011Z,17.92
2022-07-27T00:38:27.018Z,17.91
2022-07-27T00:40:55.135Z,17.89
2022-07-27T00:43:23.118Z,17.83
2022-07-27T00:45:52.436Z,17.81
2022-07-27T00:48:20.388Z,17.76
2022-07-27T00:50:48.518Z,17.68
2022-07-27T00:53:16.855Z,17.65
2022-07-27T00:55:44.832Z,17.63
2022-07-27T00:58:13.242Z,17.61
2022-07-27T01:00:41.237Z,17.58
2022-07-27T01:03:10.670Z,17.56
2022-07-27T01:05:43.059Z,17.56
2022-07-27T01:08:12.522Z,17.51
2022-07-27T01:10:40.631Z,17.45
2022-07-27T01:13:12.725Z,17.40
2022-07-27T01:15:41.385Z,17.36
2022-07-27T01:18:13.305Z,17.23
2022-07-27T01:20:41.798Z,17.31
2022-07-27T01:23:11.325Z,17.33
2022-07-27T01:25:42.415Z,17.31
2022-07-27T01:28:10.367Z,17.28
2022-07-27T01:30:38.384Z,17.24
2022-07-27T01:33:07.084Z,17.14
2022-07-27T01:35:35.065Z,17.09
2022-07-27T01:38:03.012Z,17.02
2022-07-27T01:40:32.320Z,17.00
2022-07-27T01:43:00.235Z,16.96
2022-07-27T01:45:28.398Z,16.94
2022-07-27T01:47:56.347Z,16.91
2022-07-27T01:50:24.301Z,16.87
2022-07-27T01:52:52.213Z,16.84
2022-07-27T01:55:20.221Z,16.82
2022-07-27T01:57:49.587Z,16.78
2022-07-27T02:00:17.857Z,16.73
2022-07-27T02:02:45.784Z,16.75
2022-07-27T02:05:13.906Z,16.74
2022-07-27T02:07:42.013Z,16.69
2022-07-27T02:10:10.698Z,16.67
2022-07-27T02:12:37.906Z,16.63
2022-07-27T02:15:09.050Z,16.59
2022-07-27T02:17:43.261Z,16.54
2022-07-27T02:20:12.028Z,16.50
2022-07-27T02:22:39.959Z,16.44
2022-07-27T02:25:09.155Z,16.41
2022-07-27T02:27:37.041Z,16.36
2022-07-27T02:30:05.526Z,16.34
2022-07-27T02:32:34.916Z,16.18
2022-07-27T02:35:18.276Z,16.28
2022-07-27T02:37:48.014Z,16.30
2022-07-27T02:40:17.277Z,16.30
2022-07-27T02:42:45.695Z,16.24
2022-07-27T02:45:13.677Z,16.23
2022-07-27T02:47:43.206Z,16.26
2022-07-27T02:50:11.380Z,16.27
2022-07-27T02:52:39.397Z,16.26
2022-07-27T02:55:07.983Z,16.25
2022-07-27T02:57:37.976Z,16.22
2022-07-27T03:00:06.940Z,16.19
2022-07-27T03:02:34.904Z,16.17
2022-07-27T03:05:04.773Z,16.14
2022-07-27T03:07:32.706Z,16.11
2022-07-27T03:10:00.693Z,16.09
2022-07-27T03:12:28.626Z,16.06
2022-07-27T03:14:57.481Z,16.02
2022-07-27T03:17:25.403Z,16.03
2022-07-27T03:19:53.348Z,15.99
2022-07-27T03:22:22.695Z,15.96
2022-07-27T03:24:50.698Z,15.93
2022-07-27T03:27:18.622Z,15.92
2022-07-27T03:29:46.562Z,15.88
2022-07-27T03:32:14.525Z,15.87
2022-07-27T03:34:42.489Z,15.85
2022-07-27T03:37:10.479Z,15.84
2022-07-27T03:39:39.824Z,15.84
2022-07-27T03:42:07.934Z,15.82
2022-07-27T03:44:35.906Z,15.79
2022-07-27T03:47:03.906Z,15.79
2022-07-27T03:49:32.119Z,15.77
2022-07-27T03:52:00.158Z,15.76
2022-07-27T03:54:28.218Z,15.73
2022-07-27T03:56:57.486Z,15.71
2022-07-27T03:59:27.485Z,15.68
2022-07-27T04:01:56.111Z,15.64
2022-07-27T04:04:24.160Z,15.64
2022-07-27T04:06:52.121Z,15.61
2022-07-27T04:09:20.504Z,15.59
2022-07-27T04:11:50.703Z,15.59
2022-07-27T04:14:20.952Z,15.57
2022-07-27T04:16:48.902Z,15.57
2022-07-27T04:19:16.870Z,15.55
2022-07-27T04:21:44.877Z,15.52
2022-07-27T04:24:12.787Z,15.50
2022-07-27T04:26:40.696Z,15.46
2022-07-27T04:29:08.788Z,15.42
2022-07-27T04:31:38.232Z,15.37
2022-07-27T04:34:06.203Z,15.38
2022-07-27T04:36:34.157Z,15.38
2022-07-27T04:39:02.105Z,15.38
2022-07-27T04:41:31.264Z,15.34
2022-07-27T04:44:00.191Z,15.32
2022-07-27T04:46:29.648Z,15.33
2022-07-27T04:48:59.384Z,15.36
2022-07-27T04:51:31.174Z,15.35
2022-07-27T04:54:02.102Z,15.36
2022-07-27T04:56:30.155Z,15.36
2022-07-27T04:58:58.121Z,15.38
2022-07-27T05:01:30.334Z,15.38
2022-07-27T05:04:04.130Z,15.41
2022-07-27T05:06:32.977Z,15.46
2022-07-27T05:09:00.991Z,15.48
2022-07-27T05:11:28.911Z,15.48
2022-07-27T05:13:56.910Z,15.51
2022-07-27T05:16:28.448Z,15.53
2022-07-27T05:18:57.284Z,15.56
2022-07-27T05:21:27.343Z,15.62
2022-07-27T05:23:55.785Z,15.67
2022-07-27T05:26:23.794Z,15.73
2022-07-27T05:28:51.913Z,15.80
2022-07-27T05:31:19.866Z,15.89
2022-07-27T05:33:49.783Z,15.99
2022-07-27T05:36:18.570Z,16.14
2022-07-27T05:38:50.412Z,16.29
2022-07-27T05:41:23.571Z,16.37
2022-07-27T05:43:51.575Z,16.39
2022-07-27T05:46:19.538Z,16.43
2022-07-27T05:48:47.733Z,16.45
2022-07-27T05:51:15.782Z,16.55
2022-07-27T05:53:47.932Z,16.64
2022-07-27T05:56:16.306Z,16.67
2022-07-27T05:58:44.254Z,16.75
2022-07-27T06:01:12.297Z,16.85
2022-07-27T06:03:40.377Z,16.97
2022-07-27T06:06:25.909Z,17.03
2022-07-27T06:08:58.740Z,17.01
2022-07-27T06:11:26.685Z,17.10
2022-07-27T06:13:58.451Z,17.13
2022-07-27T06:16:26.656Z,17.18
2022-07-27T06:18:54.663Z,17.19
2022-07-27T06:21:24.280Z,17.25
2022-07-27T06:23:52.229Z,17.34
2022-07-27T06:26:21.581Z,17.45
2022-07-27T06:28:49.502Z,17.53
2022-07-27T06:31:17.548Z,17.64
2022-07-27T06:33:46.171Z,17.78
2022-07-27T06:36:19.068Z,17.95
2022-07-27T06:38:47.042Z,18.08
2022-07-27T06:41:23.998Z,18.21
2022-07-27T06:43:53.329Z,18.37
2022-07-27T06:46:21.284Z,18.48
2022-07-27T06:48:49.404Z,18.58
2022-07-27T06:51:17.462Z,18.65
2022-07-27T06:53:45.760Z,18.82
2022-07-27T06:56:14.088Z,18.92
2022-07-27T06:58:42.177Z,18.97
2022-07-27T07:01:11.533Z,19.16
2022-07-27T07:03:39.561Z,19.27
2022-07-27T07:06:07.586Z,19.39
2022-07-27T07:08:35.695Z,19.50
2022-07-27T07:11:03.995Z,19.62
2022-07-27T07:13:36.749Z,19.78
2022-07-27T07:16:06.720Z,19.91
2022-07-27T07:18:36.082Z,20.02
2022-07-27T07:21:04.062Z,20.19
2022-07-27T07:23:31.972Z,20.33
2022-07-27T07:26:00.065Z,20.48
2022-07-27T07:28:29.609Z,20.62
2022-07-27T07:30:57.723Z,20.74
2022-07-27T07:33:26.912Z,20.88
2022-07-27T07:36:12.086Z,21.00
2022-07-27T07:38:42.950Z,21.13
2022-07-27T07:41:10.889Z,21.22
2022-07-27T07:43:39.792Z,21.26
2022-07-27T07:46:08.693Z,21.30
2022-07-27T07:48:36.753Z,21.32
2022-07-27T07:51:06.142Z,21.31
2022-07-27T07:53:39.177Z,21.36
2022-07-27T07:56:09.523Z,21.41
2022-07-27T07:58:37.947Z,21.46
2022-07-27T08:01:05.879Z,21.52
2022-07-27T08:03:34.172Z,21.59
2022-07-27T08:06:02.281Z,21.72
2022-07-27T08:08:33.106Z,21.82
2022-07-27T08:11:01.021Z,21.96
2022-07-27T08:13:28.959Z,22.02
2022-07-27T08:15:57.042Z,22.08
2022-07-27T08:18:25.064Z,22.15
2022-07-27T08:20:52.938Z,22.18
2022-07-27T08:23:20.906Z,22.26
2022-07-27T08:25:50.325Z,22.33
2022-07-27T08:28:18.326Z,22.40
2022-07-27T08:30:46.614Z,22.46
2022-07-27T08:33:14.592Z,22.52
2022-07-27T08:35:42.623Z,22.60
2022-07-27T08:38:10.877Z,22.68
2022-07-27T08:40:41.953Z,22.76
2022-07-27T08:43:18.917Z,22.76
2022-07-27T08:45:54.742Z,22.82
2022-07-27T08:48:22.915Z,22.89
2022-07-27T08:50:50.945Z,22.96
2022-07-27T08:53:19.144Z,22.97
2022-07-27T08:55:48.081Z,23.00
2022-07-27T08:58:17.563Z,23.02
2022-07-27T09:00:46.467Z,23.07
2022-07-27T09:03:19.086Z,23.09
2022-07-27T09:05:49.457Z,22.90
2022-07-27T09:08:18.354Z,23.18
2022-07-27T09:10:46.554Z,23.27
2022-07-27T09:13:23.431Z,23.40
2022-07-27T09:18:40.297Z,23.63
2022-07-27T09:21:16.060Z,23.74
2022-07-27T09:23:44.723Z,23.85
2022-07-27T09:26:29.851Z,23.96
2022-07-27T09:29:01.080Z,24.07
2022-07-27T09:31:29.224Z,24.14
2022-07-27T09:33:58.087Z,24.21
2022-07-27T09:36:28.171Z,24.34
2022-07-27T09:39:01.859Z,24.40
2022-07-27T09:41:40.385Z,24.40
2022-07-27T09:44:31.190Z,24.32
2022-07-27T09:46:57.767Z,24.48
2022-07-27T09:49:29.958Z,24.52
2022-07-27T09:52:00.447Z,24.60
2022-07-27T09:54:29.638Z,24.67
2022-07-27T09:57:01.859Z,24.77
2022-07-27T09:59:31.370Z,24.81
2022-07-27T10:02:00.589Z,25.06
2022-07-27T10:04:28.695Z,25.22
2022-07-27T10:07:08.166Z,25.40
2022-07-27T10:09:39.592Z,25.61
2022-07-27T10:12:08.188Z,25.80
2022-07-27T10:14:37.538Z,25.95
2022-07-27T10:17:06.415Z,26.05
2022-07-27T10:19:37.749Z,26.15
2022-07-27T10:22:05.853Z,26.25
2022-07-27T10:24:36.364Z,26.30
2022-07-27T10:27:19.586Z,26.36
2022-07-27T10:29:49.315Z,26.43
2022-07-27T10:32:24.756Z,26.36
2022-07-27T10:34:52.751Z,26.50
2022-07-27T10:37:26.226Z,26.54
2022-07-27T10:40:15.179Z,26.54
2022-07-27T10:42:43.141Z,26.60
2022-07-27T10:45:13.439Z,26.64
2022-07-27T10:47:43.301Z,26.66
2022-07-27T10:50:38.482Z,26.74
2022-07-27T10:53:11.456Z,26.74
2022-07-27T10:55:49.681Z,26.78
2022-07-27T10:58:48.756Z,26.80
2022-07-27T11:01:18.977Z,26.83
2022-07-27T11:03:57.157Z,26.90
2022-07-27T11:06:41.929Z,27.04
2022-07-27T11:12:04.563Z,27.21
2022-07-27T11:14:32.858Z,27.23
2022-07-27T11:17:32.234Z,27.18
2022-07-27T11:19:54.830Z,26.97
2022-07-27T11:23:03.206Z,26.80
2022-07-27T11:25:21.467Z,26.60
2022-07-27T11:27:49.954Z,26.45
2022-07-27T11:30:25.423Z,26.31
2022-07-27T11:32:54.854Z,26.16
2022-07-27T11:35:23.010Z,26.09
2022-07-27T11:38:01.470Z,26.04
2022-07-27T11:43:33.840Z,25.82
2022-07-27T11:46:13.313Z,25.61
2022-07-27T11:49:05.905Z,25.56
2022-07-27T11:51:37.602Z,25.45
2022-07-27T11:54:06.641Z,25.34
2022-07-27T11:56:35.926Z,25.22
2022-07-27T11:59:11.914Z,25.10
2022-07-27T12:01:41.677Z,24.99
2022-07-27T12:04:13.906Z,24.92
2022-07-27T12:06:42.825Z,24.86
2022-07-27T12:09:13.046Z,24.82
2022-07-27T12:11:56.428Z,24.81
2022-07-27T12:14:37.596Z,24.77
2022-07-27T12:17:27.523Z,24.86
2022-07-27T12:20:03.153Z,25.00
2022-07-27T12:22:33.136Z,25.17
2022-07-27T12:25:01.911Z,25.37
2022-07-27T12:27:30.580Z,25.52
2022-07-27T12:30:00.117Z,25.54
2022-07-27T12:32:28.317Z,25.54
2022-07-27T12:34:57.646Z,25.52
2022-07-27T12:37:30.463Z,25.55
2022-07-27T12:39:58.487Z,25.54
2022-07-27T12:42:34.465Z,25.60
2022-07-27T12:45:12.665Z,25.57
2022-07-27T12:47:43.200Z,25.50
2022-07-27T12:50:14.248Z,25.49
2022-07-27T12:52:45.301Z,25.50
2022-07-27T12:55:15.829Z,25.44
2022-07-27T12:57:55.778Z,25.28
2022-07-27T13:00:29.365Z,25.07
2022-07-27T13:03:01.162Z,24.86
2022-07-27T13:05:30.576Z,24.68
2022-07-27T13:07:59.087Z,24.56
2022-07-27T13:10:27.977Z,24.45
2022-07-27T13:12:56.036Z,24.36
2022-07-27T13:15:24.005Z,24.32
2022-07-27T13:17:51.995Z,24.29
2022-07-27T13:20:20.021Z,24.19
2022-07-27T13:22:49.433Z,24.06
2022-07-27T13:25:17.975Z,24.01
2022-07-27T13:27:46.088Z,23.99
2022-07-27T13:30:15.866Z,24.04
2022-07-27T13:32:44.281Z,24.18
2022-07-27T13:35:16.735Z,24.30
2022-07-27T13:37:45.014Z,24.38
2022-07-27T13:40:14.944Z,24.42
2022-07-27T13:42:42.914Z,24.44
2022-07-27T13:45:12.231Z,24.50
2022-07-27T13:47:40.687Z,24.60
2022-07-27T13:50:17.030Z,24.58
2022-07-27T13:52:46.614Z,24.53
2022-07-27T13:55:16.128Z,24.50
2022-07-27T13:57:44.165Z,24.53
2022-07-27T14:00:13.296Z,24.62
2022-07-27T14:02:41.976Z,24.71
2022-07-27T14:05:13.046Z,24.80
2022-07-27T14:07:42.224Z,24.90
2022-07-27T14:10:30.146Z,24.91
2022-07-27T14:13:07.417Z,25.13
2022-07-27T14:15:52.647Z,25.28
2022-07-27T14:18:24.537Z,25.40
2022-07-27T14:20:52.496Z,25.59
2022-07-27T14:23:20.994Z,25.85
2022-07-27T14:25:49.021Z,26.23
2022-07-27T14:28:18.325Z,26.62
2022-07-27T14:30:46.579Z,26.92
2022-07-27T14:33:14.521Z,27.28
2022-07-27T14:35:42.495Z,27.59
2022-07-27T14:38:10.420Z,27.82
2022-07-27T14:40:40.560Z,27.97
2022-07-27T14:43:08.564Z,28.11
2022-07-27T14:45:45.125Z,28.16
2022-07-27T14:48:20.387Z,28.10
2022-07-27T14:50:50.994Z,28.04
2022-07-27T14:53:18.981Z,27.95
2022-07-27T14:55:46.972Z,27.88
2022-07-27T14:58:15.042Z,27.80
2022-07-27T15:00:44.810Z,27.71
2022-07-27T15:03:14.551Z,27.64
2022-07-27T15:05:50.349Z,27.57
2022-07-27T15:08:20.061Z,27.52
2022-07-27T15:10:48.527Z,27.48
2022-07-27T15:13:16.606Z,27.49
2022-07-27T15:15:48.389Z,27.52
2022-07-27T15:18:18.790Z,27.60
2022-07-27T15:20:46.896Z,27.67
2022-07-27T15:23:14.832Z,27.73
2022-07-27T15:25:42.845Z,27.81
2022-07-27T15:28:10.844Z,27.92
2022-07-27T15:30:39.115Z,28.00
2022-07-27T15:33:08.604Z,28.12
2022-07-27T15:35:36.569Z,28.23
2022-07-27T15:38:04.865Z,28.33
2022-07-27T15:40:38.811Z,28.44
2022-07-27T15:43:07.485Z,28.54
2022-07-27T15:45:38.714Z,28.52
2022-07-27T15:48:09.552Z,28.51
2022-07-27T15:50:37.998Z,28.44
2022-07-27T15:53:06.118Z,28.38
2022-07-27T15:55:35.331Z,28.43
2022-07-27T15:58:03.417Z,28.42
2022-07-27T16:00:35.575Z,28.39
2022-07-27T16:03:08.207Z,28.22
2022-07-27T16:05:36.190Z,27.98
2022-07-27T16:08:04.888Z,27.68
2022-07-27T16:10:32.851Z,27.35
2022-07-27T16:13:01.838Z,26.98
2022-07-27T16:15:43.966Z,26.89
2022-07-27T16:18:13.349Z,26.67
2022-07-27T16:20:41.295Z,26.54
2022-07-27T16:23:18.531Z,26.46
2022-07-27T16:26:07.586Z,26.40
2022-07-27T16:28:37.173Z,26.25
2022-07-27T16:31:05.630Z,26.11
2022-07-27T16:33:34.989Z,25.87
2022-07-27T16:36:03.013Z,25.72
2022-07-27T16:38:30.909Z,25.65
2022-07-27T16:40:58.871Z,25.63
2022-07-27T16:43:37.961Z,25.57
2022-07-27T16:46:07.860Z,25.41
2022-07-27T16:48:42.295Z,25.22
2022-07-27T16:51:12.080Z,25.08
2022-07-27T16:53:40.384Z,24.87
2022-07-27T16:56:09.091Z,24.72
2022-07-27T16:58:37.124Z,24.68
2022-07-27T17:01:05.277Z,24.61
2022-07-27T17:03:33.253Z,24.59
2022-07-27T17:06:06.512Z,24.60
2022-07-27T17:08:35.667Z,24.50
2022-07-27T17:11:06.069Z,24.45
2022-07-27T17:13:34.918Z,24.40
2022-07-27T17:16:03.445Z,24.43
2022-07-27T17:18:37.139Z,24.47
2022-07-27T17:21:09.527Z,24.49
2022-07-27T17:23:38.943Z,24.54
2022-07-27T17:26:07.958Z,24.51
2022-07-27T17:28:38.816Z,24.40
2022-07-27T17:31:07.059Z,24.35
2022-07-27T17:33:35.398Z,24.28
2022-07-27T17:36:03.588Z,24.22
2022-07-27T17:38:33.390Z,24.12
2022-07-27T17:41:01.401Z,24.02
2022-07-27T17:43:29.434Z,23.95
2022-07-27T17:45:57.391Z,23.84
2022-07-27T17:48:25.349Z,23.75
2022-07-27T17:50:53.299Z,23.71
2022-07-27T17:53:21.232Z,23.64
2022-07-27T17:55:50.567Z,23.60
2022-07-27T17:58:18.718Z,23.57
2022-07-27T18:00:46.778Z,23.55
2022-07-27T18:03:15.501Z,23.57
2022-07-27T18:05:44.070Z,23.26
2022-07-27T18:08:12.032Z,23.56
2022-07-27T18:10:40.001Z,23.62
2022-07-27T18:13:09.391Z,23.68
2022-07-27T18:15:51.736Z,23.83
2022-07-27T18:18:24.084Z,23.95
2022-07-27T18:20:52.879Z,24.16
2022-07-27T18:23:20.922Z,24.26
2022-07-27T18:25:48.907Z,24.30
2022-07-27T18:28:18.980Z,24.33
2022-07-27T18:30:47.242Z,24.37
2022-07-27T18:33:15.802Z,24.37
2022-07-27T18:35:44.177Z,24.30
2022-07-27T18:38:12.307Z,24.25
2022-07-27T18:40:42.034Z,24.20
2022-07-27T18:43:10.689Z,24.15
2022-07-27T18:45:40.277Z,24.11
2022-07-27T18:48:09.810Z,24.01
2022-07-27T18:50:39.687Z,23.96
2022-07-27T18:53:08.120Z,23.82
2022-07-27T18:55:36.036Z,23.65
2022-07-27T18:58:03.966Z,23.36
2022-07-27T19:00:32.142Z,23.29
2022-07-27T19:03:01.652Z,23.13
2022-07-27T19:05:40.722Z,23.01
2022-07-27T19:08:12.923Z,22.86
2022-07-27T19:10:41.595Z,22.75
2022-07-27T19:13:10.455Z,22.65
2022-07-27T19:15:38.560Z,22.59
2022-07-27T19:18:08.050Z,22.48
2022-07-27T19:20:37.585Z,22.38
2022-07-27T19:23:06.235Z,22.30
2022-07-27T19:25:34.752Z,22.25
2022-07-27T19:28:02.846Z,22.25
2022-07-27T19:30:30.889Z,22.20
2022-07-27T19:32:58.996Z,22.14
2022-07-27T19:35:28.418Z,22.07
2022-07-27T19:37:56.342Z,22.00
2022-07-27T19:43:12.224Z,21.86
2022-07-27T19:45:40.541Z,21.82
2022-07-27T19:48:08.670Z,21.78
2022-07-27T19:50:38.102Z,21.75
2022-07-27T19:53:06.182Z,21.71
2022-07-27T19:55:34.574Z,21.69
2022-07-27T19:58:02.566Z,21.67
2022-07-27T20:00:30.828Z,21.63
2022-07-27T20:02:58.815Z,21.61
2022-07-27T20:05:26.910Z,21.59
2022-07-27T20:07:56.244Z,21.54
2022-07-27T20:10:25.310Z,21.51
2022-07-27T20:12:53.594Z,21.48
2022-07-27T20:15:22.485Z,21.43
2022-07-27T20:17:50.828Z,21.40
2022-07-27T20:20:19.014Z,21.36
2022-07-27T20:22:46.917Z,21.30
2022-07-27T20:25:16.353Z,21.25
2022-07-27T20:27:44.727Z,21.20
2022-07-27T20:30:14.546Z,21.15
2022-07-27T20:32:42.505Z,21.09
2022-07-27T20:35:10.436Z,21.01
2022-07-27T20:37:38.725Z,20.93
2022-07-27T20:40:09.662Z,20.41
2022-07-27T20:42:40.358Z,20.78
2022-07-27T20:45:11.053Z,20.43
2022-07-27T20:47:39.223Z,20.66
2022-07-27T20:50:08.661Z,20.61
2022-07-27T20:52:36.637Z,20.57
2022-07-27T20:55:04.963Z,20.54
2022-07-27T20:57:32.928Z,20.53
2022-07-27T21:00:02.374Z,20.52
2022-07-27T21:02:30.474Z,20.51
2022-07-27T21:04:58.689Z,20.49
2022-07-27T21:07:27.067Z,20.45
2022-07-27T21:09:55.042Z,20.43
2022-07-27T21:12:23.097Z,20.40
2022-07-27T21:14:51.081Z,20.36
2022-07-27T21:17:20.499Z,20.32
2022-07-27T21:19:48.709Z,20.13
2022-07-27T21:22:16.615Z,20.20
2022-07-27T21:24:45.222Z,20.07
2022-07-27T21:27:15.535Z,20.06
2022-07-27T21:29:49.135Z,19.97
2022-07-27T21:32:17.074Z,19.91
2022-07-27T21:34:46.437Z,19.87
2022-07-27T21:37:14.513Z,19.80
2022-07-27T21:39:42.591Z,19.75
2022-07-27T21:42:10.532Z,19.70
2022-07-27T21:44:38.782Z,19.57
2022-07-27T21:47:13.062Z,19.60
2022-07-27T21:49:41.286Z,19.57
2022-07-27T21:52:11.381Z,19.57
2022-07-27T21:54:39.791Z,19.32
2022-07-27T21:57:07.760Z,19.53
2022-07-27T21:59:35.714Z,19.49
2022-07-27T22:02:03.698Z,19.45
2022-07-27T22:04:31.751Z,19.42
2022-07-27T22:06:59.751Z,19.35
2022-07-27T22:09:29.078Z,19.32
2022-07-27T22:11:57.010Z,19.22
2022-07-27T22:14:24.957Z,19.23
2022-07-27T22:16:53.771Z,19.17
2022-07-27T22:19:24.490Z,19.10
2022-07-27T22:21:52.347Z,18.96
2022-07-27T22:24:20.269Z,19.02
2022-07-27T22:26:50.264Z,18.97
2022-07-27T22:29:18.272Z,18.92
2022-07-27T22:31:46.308Z,18.88
2022-07-27T22:34:14.852Z,18.83
2022-07-27T22:36:43.153Z,18.80
2022-07-27T22:39:11.134Z,18.78
2022-07-27T22:41:39.110Z,18.74
2022-07-27T22:44:08.463Z,18.70
2022-07-27T22:46:36.412Z,18.66
2022-07-27T22:49:04.447Z,18.60
2022-07-27T22:51:50.094Z,18.56
2022-07-27T22:54:20.361Z,18.52
2022-07-27T22:56:48.381Z,18.50
2022-07-27T22:59:17.757Z,18.48
2022-07-27T23:01:47.976Z,18.43
2022-07-27T23:04:17.585Z,18.38
2022-07-27T23:06:46.215Z,18.35
2022-07-27T23:09:15.084Z,18.30
2022-07-27T23:11:43.269Z,18.24
2022-07-27T23:14:11.748Z,18.20
2022-07-27T23:16:41.396Z,18.17
2022-07-27T23:19:09.380Z,18.13
2022-07-27T23:21:37.492Z,18.11
2022-07-27T23:24:05.691Z,18.09
2022-07-27T23:26:33.678Z,18.06
2022-07-27T23:29:02.150Z,18.03
2022-07-27T23:31:30.188Z,17.99
2022-07-27T23:33:59.539Z,18.00
2022-07-27T23:36:27.581Z,17.66
2022-07-27T23:38:55.529Z,17.97
2022-07-27T23:41:23.486Z,17.93
2022-07-27T23:43:51.408Z,17.91
2022-07-27T23:46:19.423Z,17.89
2022-07-27T23:48:47.501Z,17.88
2022-07-27T23:51:20.050Z,17.87
2022-07-27T23:53:48.152Z,17.83
2022-07-27T23:56:16.080Z,17.81
2022-07-27T23:58:45.766Z,17.79
